createdAt,value
2023-10-06T00:01:12.327Z,1.00
2023-10-06T00:03:42.196Z,1.00
2023-10-06T00:06:14.200Z,1.00
2023-10-06T00:08:52.500Z,1.00
2023-10-06T00:11:29.809Z,1.00
2023-10-06T00:14:02.833Z,1.00
2023-10-06T00:16:36.037Z,1.00
2023-10-06T00:19:21.347Z,1.00
2023-10-06T00:22:04.056Z,99.90
2023-10-06T00:24:34.742Z,99.90
2023-10-06T00:27:02.850Z,1.00
2023-10-06T00:29:31.394Z,1.00
2023-10-06T00:32:07.872Z,1.00
2023-10-06T00:34:36.234Z,1.00
2023-10-06T00:37:04.420Z,1.00
2023-10-06T00:39:33.956Z,1.00
2023-10-06T00:42:05.649Z,1.00
2023-10-06T00:44:33.800Z,1.00
2023-10-06T00:47:07.331Z,1.00
2023-10-06T00:49:36.022Z,1.00
2023-10-06T00:52:07.694Z,1.00
2023-10-06T00:54:37.277Z,1.00
2023-10-06T00:57:10.999Z,1.00
2023-10-06T00:59:39.345Z,1.00
2023-10-06T01:02:10.262Z,1.00
2023-10-06T01:04:45.252Z,1.00
2023-10-06T01:07:16.015Z,1.00
2023-10-06T01:09:58.385Z,1.00
2023-10-06T01:12:27.316Z,1.00
2023-10-06T01:15:06.965Z,1.00
2023-10-06T01:17:35.505Z,1.00
2023-10-06T01:20:04.974Z,1.00
2023-10-06T01:22:43.087Z,1.00
2023-10-06T01:25:21.336Z,1.00
2023-10-06T01:27:51.607Z,19.70
2023-10-06T01:30:20.327Z,1.00
2023-10-06T01:32:51.934Z,1.00
2023-10-06T01:35:22.411Z,1.00
2023-10-06T01:37:58.603Z,1.00
2023-10-06T01:40:44.609Z,1.00
2023-10-06T01:43:16.441Z,99.90
2023-10-06T01:45:46.097Z,99.90
2023-10-06T01:48:24.521Z,75.60
2023-10-06T01:50:56.333Z,99.90
2023-10-06T01:53:33.912Z,1.00
2023-10-06T01:56:08.262Z,99.90
2023-10-06T01:58:38.292Z,1.00
2023-10-06T02:01:09.032Z,1.00
2023-10-06T02:03:43.302Z,1.00
2023-10-06T02:06:17.136Z,99.90
2023-10-06T02:08:50.833Z,1.00
2023-10-06T02:11:19.382Z,99.90
2023-10-06T02:13:47.525Z,99.90
2023-10-06T02:16:18.818Z,19.70
2023-10-06T02:18:46.916Z,37.40
2023-10-06T02:21:15.890Z,31.20
2023-10-06T02:23:45.316Z,97.50
2023-10-06T02:26:15.597Z,99.90
2023-10-06T02:28:49.510Z,99.90
2023-10-06T02:31:20.468Z,58.50
2023-10-06T02:33:50.495Z,99.90
2023-10-06T02:36:22.585Z,99.90
2023-10-06T02:38:51.432Z,99.90
2023-10-06T02:41:22.596Z,99.90
2023-10-06T02:43:51.493Z,53.50
2023-10-06T02:46:24.406Z,1.00
2023-10-06T02:48:52.968Z,1.00
2023-10-06T02:51:30.630Z,1.00
2023-10-06T02:54:14.664Z,1.00
2023-10-06T02:56:44.847Z,1.00
2023-10-06T02:59:22.909Z,99.90
2023-10-06T03:01:53.785Z,1.00
2023-10-06T03:04:26.391Z,99.90
2023-10-06T03:06:56.819Z,1.00
2023-10-06T03:09:37.443Z,1.00
2023-10-06T03:12:17.050Z,99.90
2023-10-06T03:14:45.405Z,99.90
2023-10-06T03:17:15.136Z,1.00
2023-10-06T03:19:44.988Z,1.00
2023-10-06T03:22:14.316Z,1.00
2023-10-06T03:24:54.282Z,1.00
2023-10-06T03:27:24.996Z,1.00
2023-10-06T03:29:56.067Z,1.00
2023-10-06T03:32:33.899Z,1.00
2023-10-06T03:35:12.953Z,1.00
2023-10-06T03:37:53.704Z,1.00
2023-10-06T03:40:24.786Z,1.00
2023-10-06T03:42:55.004Z,1.00
2023-10-06T03:45:30.312Z,1.00
2023-10-06T03:48:09.895Z,1.00
2023-10-06T03:50:44.155Z,1.00
2023-10-06T03:53:15.891Z,1.00
2023-10-06T03:55:46.196Z,17.80
2023-10-06T03:58:18.415Z,1.00
2023-10-06T04:00:50.213Z,1.00
2023-10-06T04:03:19.612Z,30.00
2023-10-06T04:05:49.869Z,99.90
2023-10-06T04:08:20.318Z,99.90
2023-10-06T04:10:49.850Z,99.90
2023-10-06T04:13:19.670Z,1.00
2023-10-06T04:15:50.313Z,1.00
2023-10-06T04:18:19.539Z,1.00
2023-10-06T04:20:47.455Z,3.90
2023-10-06T04:23:18.372Z,99.90
2023-10-06T04:25:47.669Z,99.90
2023-10-06T04:28:20.548Z,1.00
2023-10-06T04:30:49.202Z,99.90
2023-10-06T04:33:19.881Z,99.90
2023-10-06T04:35:53.860Z,1.00
2023-10-06T04:38:22.268Z,29.10
2023-10-06T04:40:50.659Z,43.00
2023-10-06T04:43:20.187Z,94.00
2023-10-06T04:45:48.887Z,1.00
2023-10-06T04:48:20.047Z,1.00
2023-10-06T04:50:51.559Z,1.00
2023-10-06T04:53:19.934Z,99.90
2023-10-06T04:55:48.247Z,99.90
2023-10-06T04:58:19.165Z,1.00
2023-10-06T05:00:54.225Z,1.00
2023-10-06T05:03:22.750Z,99.90
2023-10-06T05:05:51.868Z,99.90
2023-10-06T05:08:20.359Z,99.90
2023-10-06T05:10:48.599Z,99.90
2023-10-06T05:13:17.653Z,99.90
2023-10-06T05:15:45.884Z,1.00
2023-10-06T05:18:17.276Z,29.20
2023-10-06T05:20:47.602Z,99.90
2023-10-06T05:23:16.806Z,1.00
2023-10-06T05:25:46.970Z,99.90
2023-10-06T05:28:18.121Z,1.00
2023-10-06T05:30:46.986Z,1.00
2023-10-06T05:33:17.055Z,99.90
2023-10-06T05:35:47.616Z,99.90
2023-10-06T05:38:16.140Z,1.00
2023-10-06T05:40:45.449Z,1.00
2023-10-06T05:43:14.115Z,99.90
2023-10-06T05:45:43.043Z,1.00
2023-10-06T05:48:11.896Z,12.30
2023-10-06T05:50:42.598Z,99.90
2023-10-06T05:53:13.916Z,99.90
2023-10-06T05:55:43.655Z,99.90
2023-10-06T05:58:15.690Z,99.90
2023-10-06T06:00:52.360Z,44.80
2023-10-06T06:03:22.277Z,99.90
2023-10-06T06:05:53.583Z,1.00
2023-10-06T06:08:22.429Z,1.00
2023-10-06T06:10:50.843Z,99.90
2023-10-06T06:13:21.118Z,13.00
2023-10-06T06:15:51.153Z,99.90
2023-10-06T06:18:19.368Z,99.90
2023-10-06T06:20:47.537Z,99.90
2023-10-06T06:23:17.384Z,99.90
2023-10-06T06:25:46.631Z,99.90
2023-10-06T06:28:15.802Z,1.00
2023-10-06T06:30:44.018Z,99.90
2023-10-06T06:33:14.255Z,99.90
2023-10-06T06:35:44.041Z,1.00
2023-10-06T06:38:14.137Z,99.90
2023-10-06T06:40:44.664Z,99.90
2023-10-06T06:43:12.774Z,99.90
2023-10-06T06:45:45.134Z,1.00
2023-10-06T06:48:15.208Z,53.60
2023-10-06T06:50:44.505Z,1.00
2023-10-06T06:53:13.393Z,1.00
2023-10-06T06:55:43.876Z,11.50
2023-10-06T06:58:13.318Z,1.00
2023-10-06T07:00:42.163Z,99.90
2023-10-06T07:03:12.518Z,99.90
2023-10-06T07:05:41.139Z,99.90
2023-10-06T07:08:10.249Z,1.00
2023-10-06T07:13:11.979Z,1.00
2023-10-06T07:15:40.544Z,99.90
2023-10-06T07:18:11.589Z,99.90
2023-10-06T07:20:39.909Z,99.90
2023-10-06T07:23:08.114Z,12.30
2023-10-06T07:25:36.412Z,1.00
2023-10-06T07:30:36.724Z,99.90
2023-10-06T07:33:07.032Z,99.90
2023-10-06T07:35:41.898Z,99.90
2023-10-06T07:38:12.194Z,99.90
2023-10-06T07:40:40.919Z,99.90
2023-10-06T07:43:11.008Z,79.10
2023-10-06T07:45:40.477Z,71.10
2023-10-06T07:48:10.056Z,1.00
2023-10-06T07:50:39.175Z,1.00
2023-10-06T07:53:07.866Z,1.00
2023-10-06T07:55:36.093Z,1.00
2023-10-06T07:58:08.275Z,1.00
2023-10-06T08:00:40.313Z,1.00
2023-10-06T08:03:12.281Z,1.00
2023-10-06T08:05:41.937Z,1.00
2023-10-06T08:08:10.267Z,1.00
2023-10-06T08:10:41.694Z,1.00
2023-10-06T08:13:11.788Z,1.00
2023-10-06T08:15:46.097Z,1.00
2023-10-06T08:18:16.388Z,1.00
2023-10-06T08:20:45.333Z,1.00
2023-10-06T08:23:13.479Z,1.00
2023-10-06T08:28:13.933Z,1.00
2023-10-06T08:30:41.991Z,1.00
2023-10-06T08:33:10.752Z,1.00
2023-10-06T08:35:42.030Z,1.00
2023-10-06T08:38:10.703Z,1.00
2023-10-06T08:40:43.195Z,1.00
2023-10-06T08:43:12.522Z,1.00
2023-10-06T08:45:45.432Z,1.00
2023-10-06T08:48:16.559Z,1.00
2023-10-06T08:50:47.198Z,1.00
2023-10-06T08:53:16.557Z,1.00
2023-10-06T08:55:45.717Z,1.00
2023-10-06T08:58:15.760Z,1.00
2023-10-06T09:00:45.441Z,1.00
2023-10-06T09:03:16.063Z,1.00
2023-10-06T09:05:46.470Z,1.00
2023-10-06T09:08:16.348Z,1.00
2023-10-06T09:10:46.259Z,99.90
2023-10-06T09:13:17.891Z,99.90
2023-10-06T09:15:57.035Z,59.70
2023-10-06T09:18:28.569Z,99.90
2023-10-06T09:21:11.736Z,1.00
2023-10-06T09:23:42.138Z,1.00
2023-10-06T09:26:13.333Z,1.00
2023-10-06T09:29:02.985Z,1.00
2023-10-06T09:31:38.530Z,1.00
2023-10-06T09:34:10.204Z,1.00
2023-10-06T09:36:45.778Z,1.00
2023-10-06T09:39:18.911Z,1.00
2023-10-06T09:41:49.134Z,1.00
2023-10-06T09:46:53.530Z,1.00
2023-10-06T09:49:23.360Z,1.00
2023-10-06T09:54:23.786Z,99.90
2023-10-06T09:56:56.635Z,99.90
2023-10-06T09:59:27.547Z,1.00
2023-10-06T10:01:58.244Z,99.90
2023-10-06T10:04:31.648Z,99.90
2023-10-06T10:07:03.583Z,99.90
2023-10-06T10:09:36.125Z,99.90
2023-10-06T10:12:15.791Z,99.90
2023-10-06T10:15:00.972Z,99.90
2023-10-06T10:17:37.963Z,99.90
2023-10-06T10:20:10.922Z,99.90
2023-10-06T10:22:42.103Z,99.90
2023-10-06T10:25:24.752Z,99.90
2023-10-06T10:28:18.170Z,99.90
2023-10-06T10:30:58.957Z,99.90
2023-10-06T10:33:31.036Z,99.90
2023-10-06T10:36:21.515Z,99.90
2023-10-06T10:39:08.629Z,99.90
2023-10-06T10:41:38.684Z,99.90
2023-10-06T10:44:24.741Z,99.90
2023-10-06T10:49:34.276Z,99.90
2023-10-06T10:52:06.114Z,99.90
2023-10-06T10:54:37.772Z,1.30
2023-10-06T10:57:10.872Z,99.90
2023-10-06T11:00:14.441Z,99.90
2023-10-06T11:02:44.365Z,99.90
2023-10-06T11:05:13.202Z,99.90
2023-10-06T11:07:43.225Z,99.90
2023-10-06T11:10:15.513Z,99.90
2023-10-06T11:12:43.857Z,99.90
2023-10-06T11:15:17.837Z,99.90
2023-10-06T11:17:47.263Z,99.90
2023-10-06T11:20:17.485Z,99.90
2023-10-06T11:22:56.734Z,99.90
2023-10-06T11:25:29.530Z,99.90
2023-10-06T11:27:59.006Z,99.90
2023-10-06T11:30:30.270Z,99.90
2023-10-06T11:32:59.155Z,99.90
2023-10-06T11:35:27.607Z,99.90
2023-10-06T11:37:56.509Z,99.90
2023-10-06T11:40:26.223Z,99.90
2023-10-06T11:42:55.035Z,99.90
2023-10-06T11:45:28.903Z,99.90
2023-10-06T11:47:57.684Z,99.90
2023-10-06T11:50:27.763Z,99.90
2023-10-06T11:52:56.601Z,99.90
2023-10-06T11:55:32.493Z,99.90
2023-10-06T11:58:02.324Z,99.90
2023-10-06T12:00:41.482Z,99.90
2023-10-06T12:03:12.896Z,99.90
2023-10-06T12:05:44.837Z,99.90
2023-10-06T12:08:15.608Z,99.90
2023-10-06T12:10:52.904Z,99.90
2023-10-06T12:13:21.300Z,99.90
2023-10-06T12:15:49.579Z,99.90
2023-10-06T12:18:18.235Z,99.90
2023-10-06T12:20:46.724Z,99.90
2023-10-06T12:23:14.902Z,99.90
2023-10-06T12:25:43.035Z,99.90
2023-10-06T12:28:17.628Z,99.90
2023-10-06T12:30:46.128Z,99.90
2023-10-06T12:33:15.240Z,99.90
2023-10-06T12:35:43.473Z,99.90
2023-10-06T12:38:11.616Z,99.90
2023-10-06T12:40:40.351Z,99.90
2023-10-06T12:43:09.220Z,99.90
2023-10-06T12:45:39.777Z,99.90
2023-10-06T12:48:09.172Z,99.90
2023-10-06T12:50:42.092Z,99.90
2023-10-06T12:53:11.515Z,99.90
2023-10-06T12:55:42.999Z,99.90
2023-10-06T12:58:15.949Z,99.90
2023-10-06T13:00:45.697Z,99.90
2023-10-06T13:03:18.173Z,99.90
2023-10-06T13:05:47.866Z,99.90
2023-10-06T13:08:18.341Z,99.90
2023-10-06T13:10:48.219Z,99.90
2023-10-06T13:13:18.339Z,99.90
2023-10-06T13:15:48.124Z,99.90
2023-10-06T13:18:18.432Z,99.90
2023-10-06T13:20:47.525Z,99.90
2023-10-06T13:23:15.871Z,99.90
2023-10-06T13:25:47.254Z,99.90
2023-10-06T13:28:19.336Z,99.90
2023-10-06T13:30:49.005Z,99.90
2023-10-06T13:33:17.344Z,99.90
2023-10-06T13:35:46.003Z,99.90
2023-10-06T13:38:14.572Z,99.90
2023-10-06T13:40:46.086Z,99.90
2023-10-06T13:43:14.648Z,99.90
2023-10-06T13:45:46.457Z,99.90
2023-10-06T13:48:17.608Z,99.90
2023-10-06T13:50:47.185Z,99.90
2023-10-06T13:53:16.455Z,99.90
2023-10-06T13:55:46.049Z,99.90
2023-10-06T13:58:14.648Z,99.90
2023-10-06T14:00:43.583Z,99.90
2023-10-06T14:03:15.168Z,99.90
2023-10-06T14:05:50.934Z,99.90
2023-10-06T14:08:19.863Z,99.90
2023-10-06T14:10:48.270Z,99.90
2023-10-06T14:13:22.400Z,99.90
2023-10-06T14:15:55.836Z,99.90
2023-10-06T14:18:26.615Z,99.90
2023-10-06T14:20:58.836Z,99.90
2023-10-06T14:23:31.458Z,99.90
2023-10-06T14:26:01.544Z,99.90
2023-10-06T14:28:30.927Z,99.90
2023-10-06T14:31:08.799Z,99.90
2023-10-06T14:33:41.061Z,99.90
2023-10-06T14:36:22.202Z,99.90
2023-10-06T14:39:07.701Z,99.90
2023-10-06T14:41:53.466Z,99.90
2023-10-06T14:44:39.130Z,99.90
2023-10-06T14:47:08.996Z,99.90
2023-10-06T14:49:41.715Z,99.90
2023-10-06T14:52:11.372Z,99.90
2023-10-06T14:54:39.956Z,99.90
2023-10-06T14:57:08.255Z,99.90
2023-10-06T14:59:36.515Z,99.90
2023-10-06T15:02:08.427Z,99.90
2023-10-06T15:04:36.979Z,99.90
2023-10-06T15:07:06.174Z,99.90
2023-10-06T15:09:37.248Z,99.90
2023-10-06T15:12:07.863Z,99.90
2023-10-06T15:14:37.536Z,99.90
2023-10-06T15:17:10.869Z,99.90
2023-10-06T15:19:39.326Z,99.90
2023-10-06T15:22:10.144Z,99.90
2023-10-06T15:24:41.316Z,99.90
2023-10-06T15:27:09.707Z,99.90
2023-10-06T15:29:38.761Z,99.90
2023-10-06T15:32:07.304Z,99.90
2023-10-06T15:34:36.635Z,99.90
2023-10-06T15:37:05.955Z,99.90
2023-10-06T15:39:34.354Z,99.90
2023-10-06T15:42:05.512Z,99.90
2023-10-06T15:44:34.164Z,99.90
2023-10-06T15:47:03.224Z,99.90
2023-10-06T15:49:31.519Z,99.90
2023-10-06T15:51:59.685Z,99.90
2023-10-06T15:54:29.281Z,99.90
2023-10-06T15:56:58.537Z,99.90
2023-10-06T15:59:31.284Z,99.90
2023-10-06T16:02:00.667Z,99.90
2023-10-06T16:04:29.060Z,99.90
2023-10-06T16:06:59.854Z,99.90
2023-10-06T16:09:28.321Z,99.90
2023-10-06T16:11:58.604Z,99.90
2023-10-06T16:14:29.655Z,99.90
2023-10-06T16:16:58.540Z,99.90
2023-10-06T16:19:26.771Z,99.90
2023-10-06T16:21:56.404Z,99.90
2023-10-06T16:24:24.638Z,99.90
2023-10-06T16:26:52.832Z,99.90
2023-10-06T16:29:22.605Z,99.90
2023-10-06T16:31:52.236Z,99.90
2023-10-06T16:34:20.780Z,99.90
2023-10-06T16:36:48.893Z,99.90
2023-10-06T16:39:22.896Z,99.90
2023-10-06T16:41:51.770Z,99.90
2023-10-06T16:44:21.984Z,99.90
2023-10-06T16:46:51.583Z,99.90
2023-10-06T16:49:19.724Z,99.90
2023-10-06T16:51:48.086Z,99.90
2023-10-06T16:54:16.531Z,99.90
2023-10-06T16:56:45.044Z,99.90
2023-10-06T16:59:14.985Z,99.90
2023-10-06T17:01:44.411Z,99.90
2023-10-06T17:04:16.681Z,99.90
2023-10-06T17:06:46.850Z,99.90
2023-10-06T17:09:19.689Z,99.90
2023-10-06T17:11:49.288Z,99.90
2023-10-06T17:14:17.592Z,99.90
2023-10-06T17:16:46.299Z,99.90
2023-10-06T17:19:17.448Z,99.90
2023-10-06T17:21:45.802Z,99.90
2023-10-06T17:24:14.412Z,99.90
2023-10-06T17:26:43.694Z,99.90
2023-10-06T17:29:13.174Z,99.90
2023-10-06T17:31:41.656Z,99.90
2023-10-06T17:34:09.804Z,99.90
2023-10-06T17:36:40.562Z,99.90
2023-10-06T17:39:09.018Z,99.90
2023-10-06T17:41:37.451Z,99.90
2023-10-06T17:44:06.696Z,99.90
2023-10-06T17:46:34.823Z,99.90
2023-10-06T17:49:02.977Z,99.90
2023-10-06T17:51:31.211Z,99.90
2023-10-06T17:54:01.276Z,99.90
2023-10-06T17:56:29.857Z,99.90
2023-10-06T17:58:58.051Z,99.90
2023-10-06T18:01:26.380Z,99.90
2023-10-06T18:03:54.774Z,99.90
2023-10-06T18:06:22.999Z,99.90
2023-10-06T18:08:51.178Z,99.90
2023-10-06T18:11:20.686Z,99.90
2023-10-06T18:13:48.832Z,99.90
2023-10-06T18:16:17.145Z,99.90
2023-10-06T18:18:46.255Z,99.90
2023-10-06T18:21:14.899Z,99.90
2023-10-06T18:23:43.306Z,99.90
2023-10-06T18:26:15.390Z,99.90
2023-10-06T18:28:44.922Z,99.90
2023-10-06T18:31:14.765Z,99.90
2023-10-06T18:33:43.172Z,99.90
2023-10-06T18:36:12.312Z,99.90
2023-10-06T18:38:41.078Z,99.90
2023-10-06T18:41:13.726Z,99.90
2023-10-06T18:43:42.833Z,99.90
2023-10-06T18:46:12.541Z,99.90
2023-10-06T18:48:41.506Z,99.90
2023-10-06T18:51:11.422Z,99.90
2023-10-06T18:53:39.843Z,99.90
2023-10-06T18:56:08.426Z,99.90
2023-10-06T18:58:37.643Z,99.90
2023-10-06T19:01:06.170Z,99.90
2023-10-06T19:03:37.681Z,99.90
2023-10-06T19:06:08.042Z,99.90
2023-10-06T19:08:37.698Z,99.90
2023-10-06T19:11:10.978Z,99.90
2023-10-06T19:13:39.528Z,99.90
2023-10-06T19:16:11.294Z,99.90
2023-10-06T19:18:43.694Z,99.90
2023-10-06T19:21:13.194Z,99.90
2023-10-06T19:23:41.434Z,99.90
2023-10-06T19:26:12.426Z,99.90
2023-10-06T19:28:41.858Z,99.90
2023-10-06T19:31:10.980Z,99.90
2023-10-06T19:33:45.318Z,99.90
2023-10-06T19:36:14.256Z,99.90
2023-10-06T19:38:42.541Z,99.90
2023-10-06T19:41:13.339Z,99.90
2023-10-06T19:43:42.861Z,99.90
2023-10-06T19:46:12.065Z,99.90
2023-10-06T19:48:43.861Z,1.00
2023-10-06T19:51:13.644Z,99.90
2023-10-06T19:53:41.790Z,99.90
2023-10-06T19:56:09.897Z,99.90
2023-10-06T19:58:38.049Z,99.90
2023-10-06T20:01:08.544Z,99.90
2023-10-06T20:03:38.745Z,99.90
2023-10-06T20:06:08.925Z,99.90
2023-10-06T20:08:37.436Z,99.90
2023-10-06T20:11:05.673Z,99.90
2023-10-06T20:13:34.594Z,99.90
2023-10-06T20:16:11.632Z,99.90
2023-10-06T20:18:40.971Z,99.90
2023-10-06T20:21:12.787Z,99.90
2023-10-06T20:23:41.353Z,99.90
2023-10-06T20:26:09.604Z,99.90
2023-10-06T20:28:37.768Z,99.90
2023-10-06T20:31:06.063Z,99.90
2023-10-06T20:33:34.170Z,99.90
2023-10-06T20:36:02.554Z,99.90
2023-10-06T20:38:32.696Z,99.90
2023-10-06T20:41:00.989Z,99.90
2023-10-06T20:43:29.335Z,99.90
2023-10-06T20:45:59.451Z,99.90
2023-10-06T20:48:27.684Z,99.90
2023-10-06T20:50:55.927Z,99.90
2023-10-06T20:53:24.450Z,99.90
2023-10-06T20:56:02.289Z,99.90
2023-10-06T20:58:31.008Z,99.90
2023-10-06T21:01:06.704Z,99.90
2023-10-06T21:03:36.004Z,99.90
2023-10-06T21:06:04.576Z,99.90
2023-10-06T21:08:32.721Z,99.90
2023-10-06T21:11:03.074Z,99.90
2023-10-06T21:13:31.264Z,99.90
2023-10-06T21:15:59.488Z,99.90
2023-10-06T21:18:28.152Z,99.90
2023-10-06T21:20:56.785Z,99.90
2023-10-06T21:23:26.652Z,99.90
2023-10-06T21:25:54.884Z,99.90
2023-10-06T21:28:24.566Z,99.90
2023-10-06T21:30:52.846Z,99.90
2023-10-06T21:33:21.035Z,99.90
2023-10-06T21:35:49.287Z,99.90
2023-10-06T21:38:17.443Z,99.90
2023-10-06T21:40:45.655Z,99.90
2023-10-06T21:43:13.786Z,1.00
2023-10-06T21:45:43.324Z,1.00
2023-10-06T21:48:11.503Z,1.00
2023-10-06T21:50:40.577Z,1.00
2023-10-06T21:53:08.673Z,1.00
2023-10-06T21:55:37.503Z,1.00
2023-10-06T21:58:07.978Z,1.00
2023-10-06T22:00:43.653Z,1.00
2023-10-06T22:03:13.735Z,1.00
2023-10-06T22:05:42.234Z,8.70
2023-10-06T22:08:10.856Z,99.90
2023-10-06T22:10:39.084Z,99.90
2023-10-06T22:13:08.254Z,99.90
2023-10-06T22:15:37.201Z,99.90
2023-10-06T22:18:06.855Z,99.90
2023-10-06T22:20:36.370Z,99.90
2023-10-06T22:23:05.181Z,98.20
2023-10-06T22:25:35.768Z,99.90
2023-10-06T22:28:04.136Z,99.90
2023-10-06T22:30:34.077Z,99.90
2023-10-06T22:33:02.279Z,99.90
2023-10-06T22:35:31.008Z,99.90
2023-10-06T22:38:00.664Z,99.90
2023-10-06T22:40:29.108Z,99.90
2023-10-06T22:42:57.819Z,99.90
2023-10-06T22:45:26.070Z,99.90
2023-10-06T22:47:54.243Z,99.90
2023-10-06T22:50:23.337Z,99.90
2023-10-06T22:52:52.533Z,99.90
2023-10-06T22:55:22.060Z,1.00
2023-10-06T22:57:51.413Z,1.00
2023-10-06T23:00:19.634Z,1.00
2023-10-06T23:02:49.180Z,1.00
2023-10-06T23:05:17.600Z,90.60
2023-10-06T23:07:48.102Z,1.00
2023-10-06T23:10:17.476Z,1.00
2023-10-06T23:12:50.550Z,88.50
2023-10-06T23:15:19.062Z,3.40
2023-10-06T23:17:47.438Z,1.00
2023-10-06T23:20:25.352Z,99.90
2023-10-06T23:22:59.344Z,99.90
2023-10-06T23:25:37.047Z,99.90
2023-10-06T23:28:08.421Z,1.00
2023-10-06T23:30:36.388Z,1.00
2023-10-06T23:33:05.581Z,1.00
2023-10-06T23:35:33.961Z,1.00
2023-10-06T23:38:07.436Z,99.90
2023-10-06T23:40:39.603Z,99.90
2023-10-06T23:43:09.835Z,99.90
2023-10-06T23:45:39.060Z,1.00
2023-10-06T23:48:12.553Z,1.00
2023-10-06T23:50:52.476Z,1.00
2023-10-06T23:53:28.420Z,1.00
2023-10-06T23:56:01.581Z,46.60
2023-10-06T23:58:34.480Z,99.90
